Time;durP1;ratioP1;P1;durP2;ratioP2;P2;SDS_P1;SDS_P2;PMS_P1;PMS_P2;Temp;Humidity;BMP_temperature;BMP_pressure;BME280_temperature;BME280_humidity;BME280_pressure;Samples;Min_cycle;Max_cycle;Signal;HPM_P1;HPM_P2
2023/02/26 00:00:37;;;;;;;4.88;0.60;;;3.00;88.30;;;;;;4995049;28;87408;-71
2023/02/26 00:03:03;;;;;;;4.30;0.85;;;3.00;88.80;;;;;;4980099;28;86250;-71
2023/02/26 00:05:28;;;;;;;3.13;0.52;;;3.00;89.40;;;;;;4977163;28;88593;-70
2023/02/26 00:07:54;;;;;;;3.25;0.30;;;2.90;88.50;;;;;;4977728;28;87442;-71
2023/02/26 00:10:20;;;;;;;3.83;0.50;;;2.90;88.30;;;;;;4976494;28;88476;-69
2023/02/26 00:12:46;;;;;;;4.78;0.68;;;2.80;89.30;;;;;;4990343;28;87483;-72
2023/02/26 00:15:13;;;;;;;3.45;0.60;;;2.80;89.10;;;;;;4996915;28;88188;-70
2023/02/26 00:17:39;;;;;;;2.60;0.50;;;2.80;90.00;;;;;;4994525;28;87722;-70
2023/02/26 00:20:06;;;;;;;1.90;0.20;;;2.80;89.20;;;;;;4977930;28;87287;-70
2023/02/26 00:22:32;;;;;;;1.83;0.20;;;2.70;88.20;;;;;;4986502;28;87604;-70
2023/02/26 00:24:58;;;;;;;2.90;0.30;;;2.70;86.70;;;;;;4964651;28;88041;-71
2023/02/26 00:27:23;;;;;;;4.07;0.30;;;2.60;87.90;;;;;;4977545;28;87360;-71
2023/02/26 00:29:49;;;;;;;1.23;0.40;;;2.50;88.80;;;;;;4977412;28;87388;-71
2023/02/26 00:32:16;;;;;;;1.42;0.20;;;2.50;89.40;;;;;;4977528;28;87606;-70
2023/02/26 00:34:44;;;;;;;1.30;0.20;;;2.50;88.70;;;;;;4992402;28;88299;-70
2023/02/26 00:37:27;;;;;;;1.85;0.20;;;2.40;88.10;;;;;;4977635;28;90347;-72
2023/02/26 00:40:13;;;;;;;1.80;0.10;;;2.30;86.80;;;;;;4976929;28;87337;-72
2023/02/26 00:42:39;;;;;;;1.08;0.10;;;2.30;87.10;;;;;;4972906;28;89122;-74
2023/02/26 00:45:07;;;;;;;1.05;0.10;;;2.30;87.10;;;;;;4986107;28;88301;-70
2023/02/26 00:47:42;;;;;;;3.25;0.20;;;2.30;86.90;;;;;;4975416;28;87357;-71
2023/02/26 00:50:20;;;;;;;2.45;0.25;;;2.40;87.40;;;;;;4979594;28;88270;-71
2023/02/26 00:53:11;;;;;;;1.15;0.20;;;2.40;87.20;;;;;;4979552;28;86622;-72
2023/02/26 00:55:37;;;;;;;2.28;0.20;;;2.40;86.70;;;;;;4980630;28;87598;-70
2023/02/26 00:58:03;;;;;;;1.38;0.20;;;2.50;87.10;;;;;;4983399;28;87851;-72
2023/02/26 01:00:29;;;;;;;2.08;0.20;;;2.60;87.30;;;;;;4995111;28;88023;-73
2023/02/26 01:02:55;;;;;;;1.45;0.20;;;2.60;87.00;;;;;;4988158;28;88645;-70
2023/02/26 01:05:21;;;;;;;1.77;0.20;;;2.50;86.90;;;;;;4980881;28;88388;-70
2023/02/26 01:07:56;;;;;;;1.83;0.28;;;2.50;86.30;;;;;;4981246;28;87768;-71
2023/02/26 01:10:22;;;;;;;2.03;0.32;;;2.50;86.50;;;;;;4978031;28;87320;-70
2023/02/26 01:12:49;;;;;;;2.28;0.32;;;2.60;86.20;;;;;;4993560;28;87315;-71
2023/02/26 01:15:15;;;;;;;1.52;0.20;;;2.50;85.60;;;;;;4978307;28;89786;-71
2023/02/26 01:17:52;;;;;;;2.08;0.32;;;2.50;84.80;;;;;;4979767;28;87403;-71
2023/02/26 01:20:21;;;;;;;3.58;0.50;;;2.40;85.90;;;;;;4984808;28;87454;-69
2023/02/26 01:22:49;;;;;;;4.00;0.20;;;2.40;84.90;;;;;;4990678;28;87419;-73
2023/02/26 01:25:37;;;;;;;3.35;0.40;;;2.40;85.20;;;;;;4990648;28;89122;-71
2023/02/26 01:28:03;;;;;;;1.40;0.30;;;2.40;86.50;;;;;;4974998;28;90336;-70
2023/02/26 01:30:29;;;;;;;1.42;0.30;;;2.40;86.80;;;;;;4979715;28;87360;-71
2023/02/26 01:33:21;;;;;;;3.90;0.30;;;2.50;86.60;;;;;;4979759;28;87722;-69
2023/02/26 01:36:02;;;;;;;2.13;0.38;;;2.50;86.30;;;;;;4978229;28;88812;-70
2023/02/26 01:38:48;;;;;;;2.45;0.30;;;2.60;86.90;;;;;;4966007;28;87472;-69
2023/02/26 01:41:28;;;;;;;3.88;0.40;;;2.50;87.10;;;;;;4979609;28;87598;-68
2023/02/26 01:44:06;;;;;;;2.30;0.30;;;2.40;87.40;;;;;;4982445;28;86583;-72
2023/02/26 01:46:41;;;;;;;2.20;0.40;;;2.40;87.40;;;;;;4971695;28;87782;-70
2023/02/26 01:49:13;;;;;;;2.22;0.38;;;2.40;85.30;;;;;;4979391;28;87686;-72
2023/02/26 01:51:50;;;;;;;3.72;0.45;;;2.20;84.30;;;;;;4978706;28;88427;-71
2023/02/26 01:54:21;;;;;;;3.08;0.40;;;2.10;83.90;;;;;;4979625;28;87333;-71
2023/02/26 01:56:51;;;;;;;1.88;0.30;;;2.20;84.30;;;;;;4978659;28;88138;-70
2023/02/26 01:59:23;;;;;;;2.00;0.30;;;2.20;84.50;;;;;;4984437;28;87057;-70
2023/02/26 02:01:53;;;;;;;1.42;0.40;;;2.20;84.50;;;;;;4980884;28;87248;-70
2023/02/26 02:04:20;;;;;;;1.73;0.30;;;2.20;85.70;;;;;;4966864;28;87428;-72
2023/02/26 02:06:47;;;;;;;2.17;0.50;;;2.30;85.20;;;;;;4979089;28;87218;-72
2023/02/26 02:09:13;;;;;;;1.50;0.43;;;2.40;84.80;;;;;;4992460;28;87249;-72
2023/02/26 02:11:55;;;;;;;3.92;0.50;;;2.40;85.30;;;;;;4985352;28;87353;-70
2023/02/26 02:14:38;;;;;;;1.40;0.40;;;2.40;85.90;;;;;;4995695;28;87473;-70
2023/02/26 02:17:22;;;;;;;2.40;0.60;;;2.40;85.90;;;;;;4977360;28;89649;-74
2023/02/26 02:20:16;;;;;;;2.20;0.35;;;2.40;85.70;;;;;;4978143;28;87636;-74
2023/02/26 02:22:48;;;;;;;1.65;0.30;;;2.30;86.10;;;;;;4969731;28;89455;-71
2023/02/26 02:25:20;;;;;;;2.63;0.30;;;2.30;85.70;;;;;;4982125;28;87826;-70
2023/02/26 02:28:21;;;;;;;1.83;0.40;;;2.20;85.10;;;;;;4998449;28;87653;-72
2023/02/26 02:31:10;;;;;;;2.67;0.40;;;2.10;84.70;;;;;;4972269;28;87825;-70
2023/02/26 02:33:56;;;;;;;2.25;0.50;;;2.00;84.80;;;;;;4979339;28;87427;-72
2023/02/26 02:36:37;;;;;;;1.88;0.30;;;2.00;85.30;;;;;;4975737;28;87459;-72
2023/02/26 02:39:13;;;;;;;3.20;0.32;;;2.00;85.30;;;;;;4977976;28;88602;-73
2023/02/26 02:41:48;;;;;;;1.60;0.43;;;2.00;85.80;;;;;;4977787;28;87940;-70
2023/02/26 02:44:18;;;;;;;1.80;0.40;;;1.90;85.40;;;;;;4985727;28;88037;-73
2023/02/26 02:46:48;;;;;;;1.42;0.30;;;1.90;85.80;;;;;;4977975;28;87580;-72
2023/02/26 02:49:49;;;;;;;1.77;0.40;;;2.00;86.10;;;;;;4970104;28;87094;-72
2023/02/26 02:52:25;;;;;;;1.90;0.40;;;2.00;86.30;;;;;;4974550;28;88151;-71
2023/02/26 02:54:56;;;;;;;2.28;0.50;;;2.10;85.90;;;;;;4985140;28;87219;-71
2023/02/26 02:57:30;;;;;;;2.25;0.40;;;2.10;85.40;;;;;;4990630;28;87805;-70
2023/02/26 03:00:06;;;;;;;1.63;0.40;;;2.10;85.40;;;;;;4973024;28;87597;-71
2023/02/26 03:02:58;;;;;;;1.85;0.50;;;2.10;85.40;;;;;;4979103;28;87908;-70
2023/02/26 03:05:25;;;;;;;2.75;0.40;;;2.20;85.10;;;;;;4987611;28;87432;-70
2023/02/26 03:07:57;;;;;;;1.80;0.30;;;2.20;85.00;;;;;;4984214;28;87518;-70
2023/02/26 03:10:23;;;;;;;1.85;0.35;;;2.10;84.50;;;;;;4975902;28;89230;-70
2023/02/26 03:12:49;;;;;;;1.65;0.38;;;2.10;84.20;;;;;;4989830;28;88708;-74
2023/02/26 03:15:17;;;;;;;1.30;0.30;;;2.10;84.10;;;;;;4984091;28;87224;-70
2023/02/26 03:18:10;;;;;;;1.33;0.30;;;2.10;82.20;;;;;;4987008;28;87468;-70
2023/02/26 03:20:52;;;;;;;1.65;0.20;;;2.00;82.20;;;;;;4982789;28;88157;-70
2023/02/26 03:23:34;;;;;;;2.05;0.28;;;2.00;82.10;;;;;;4977951;28;87910;-72
2023/02/26 03:26:12;;;;;;;1.73;0.30;;;2.00;82.50;;;;;;4987519;28;87216;-74
2023/02/26 03:28:51;;;;;;;2.13;0.30;;;2.00;81.00;;;;;;4982972;28;86438;-70
2023/02/26 03:31:28;;;;;;;2.30;0.30;;;2.00;81.70;;;;;;4977652;28;88064;-71
2023/02/26 03:33:54;;;;;;;1.15;0.25;;;1.80;80.40;;;;;;4970841;28;87394;-70
2023/02/26 03:36:31;;;;;;;1.70;0.20;;;1.80;80.20;;;;;;4978732;28;88007;-69
2023/02/26 03:39:33;;;;;;;1.20;0.20;;;1.80;79.70;;;;;;4997874;28;87370;-72
2023/02/26 03:42:28;;;;;;;1.25;0.22;;;1.70;79.30;;;;;;4969021;28;88509;-70
2023/02/26 03:45:08;;;;;;;1.95;0.20;;;1.70;78.90;;;;;;4978024;28;87417;-71
2023/02/26 03:47:37;;;;;;;1.33;0.20;;;1.60;78.80;;;;;;4978085;28;87501;-73
2023/02/26 03:50:17;;;;;;;2.42;0.20;;;1.70;79.40;;;;;;4981007;28;87464;-72
2023/02/26 03:52:47;;;;;;;3.20;0.20;;;1.70;80.40;;;;;;4997206;28;87612;-74
2023/02/26 03:55:20;;;;;;;1.20;0.20;;;1.70;79.20;;;;;;4997746;28;87688;-74
2023/02/26 03:57:46;;;;;;;1.90;0.20;;;1.70;79.40;;;;;;4989699;28;87137;-72
2023/02/26 04:00:13;;;;;;;2.70;0.30;;;1.70;80.60;;;;;;4978012;28;87494;-73
2023/02/26 04:02:48;;;;;;;0.82;0.17;;;1.70;79.40;;;;;;4991361;28;89119;-70
2023/02/26 04:05:18;;;;;;;1.98;0.20;;;1.60;78.70;;;;;;4979069;28;89219;-71
2023/02/26 04:07:45;;;;;;;1.67;0.20;;;1.60;78.50;;;;;;4977997;28;87165;-73
2023/02/26 04:10:15;;;;;;;1.42;0.20;;;1.50;78.20;;;;;;4980751;28;87158;-72
2023/02/26 04:12:41;;;;;;;1.30;0.20;;;1.50;78.30;;;;;;4977006;28;88353;-72
2023/02/26 04:15:08;;;;;;;1.92;0.28;;;1.50;79.60;;;;;;4978031;28;87192;-73
2023/02/26 04:17:34;;;;;;;2.05;0.20;;;1.50;80.00;;;;;;4977070;28;87089;-71
2023/02/26 04:19:59;;;;;;;2.35;0.20;;;1.50;80.40;;;;;;4977788;28;86706;-72
2023/02/26 04:22:25;;;;;;;1.80;0.30;;;1.40;79.30;;;;;;4983065;28;87719;-73
2023/02/26 04:24:51;;;;;;;1.73;0.40;;;1.40;80.00;;;;;;4980604;28;87871;-72
2023/02/26 04:27:16;;;;;;;1.58;0.20;;;1.50;81.00;;;;;;4980657;28;88388;-72
2023/02/26 04:29:42;;;;;;;1.35;0.30;;;1.40;79.90;;;;;;4980924;28;87427;-72
2023/02/26 04:32:08;;;;;;;1.20;0.20;;;1.40;80.10;;;;;;4983461;28;87588;-71
2023/02/26 04:34:33;;;;;;;2.90;0.30;;;1.50;80.00;;;;;;4987303;28;88720;-71
2023/02/26 04:36:59;;;;;;;1.95;0.40;;;1.40;80.20;;;;;;4987022;28;87548;-71
2023/02/26 04:39:25;;;;;;;2.88;0.43;;;1.50;81.00;;;;;;4998124;28;87732;-71
2023/02/26 04:41:51;;;;;;;1.08;0.20;;;1.50;80.60;;;;;;4994977;28;87963;-72
2023/02/26 04:44:16;;;;;;;2.00;0.30;;;1.50;80.40;;;;;;4996383;28;88155;-72
2023/02/26 04:46:42;;;;;;;1.42;0.30;;;1.50;80.80;;;;;;4979217;28;87166;-72
2023/02/26 04:49:07;;;;;;;1.10;0.30;;;1.50;80.80;;;;;;4981014;28;87508;-72
2023/02/26 04:51:33;;;;;;;1.60;0.35;;;1.50;80.40;;;;;;4996374;28;88327;-70
2023/02/26 04:53:59;;;;;;;2.15;0.30;;;1.40;80.90;;;;;;4999712;28;88893;-72
2023/02/26 04:56:25;;;;;;;1.38;0.30;;;1.40;81.30;;;;;;4996441;28;87641;-72
2023/02/26 04:58:50;;;;;;;1.60;0.30;;;1.30;81.40;;;;;;4992701;28;87269;-72
2023/02/26 05:01:16;;;;;;;2.38;0.30;;;1.30;81.90;;;;;;4980954;28;89062;-70
2023/02/26 05:03:41;;;;;;;1.45;0.20;;;1.30;82.70;;;;;;4981283;28;87878;-70
2023/02/26 05:06:07;;;;;;;1.48;0.20;;;1.30;82.50;;;;;;4978234;28;87145;-71
2023/02/26 05:08:33;;;;;;;2.00;0.10;;;1.20;81.50;;;;;;4980974;28;86309;-71
2023/02/26 05:10:59;;;;;;;1.67;0.13;;;1.20;81.70;;;;;;4980006;28;88098;-72
2023/02/26 05:13:25;;;;;;;3.42;0.20;;;1.10;81.60;;;;;;4979496;28;87761;-72
2023/02/26 05:15:52;;;;;;;1.67;0.17;;;1.10;82.20;;;;;;4986045;28;88228;-72
2023/02/26 05:18:18;;;;;;;1.85;0.13;;;1.20;81.80;;;;;;4979510;28;87555;-72
2023/02/26 05:20:44;;;;;;;2.88;0.13;;;1.10;81.30;;;;;;4997314;28;87611;-71
2023/02/26 05:23:10;;;;;;;1.75;0.17;;;1.10;81.40;;;;;;4999785;28;87320;-73
2023/02/26 05:25:36;;;;;;;1.08;0.20;;;1.10;81.40;;;;;;4981129;28;87476;-71
2023/02/26 05:28:01;;;;;;;2.15;0.20;;;1.10;81.60;;;;;;4987909;28;87499;-74
2023/02/26 05:30:27;;;;;;;1.38;0.10;;;1.00;80.80;;;;;;4994067;28;88712;-73
2023/02/26 05:32:53;;;;;;;1.50;0.10;;;1.00;80.90;;;;;;4979591;28;87612;-71
2023/02/26 05:35:19;;;;;;;2.05;0.20;;;1.00;80.90;;;;;;4979750;28;87393;-71
2023/02/26 05:37:45;;;;;;;1.95;0.20;;;1.00;81.00;;;;;;4978859;28;87986;-72
2023/02/26 05:40:11;;;;;;;1.98;0.17;;;1.00;80.20;;;;;;4985305;28;88517;-70
2023/02/26 05:42:38;;;;;;;1.25;0.15;;;1.00;79.90;;;;;;4991457;28;88996;-71
2023/02/26 05:45:05;;;;;;;2.45;0.20;;;1.00;79.70;;;;;;4978228;28;87268;-73
2023/02/26 05:47:34;;;;;;;1.48;0.20;;;0.90;79.60;;;;;;4982933;28;88357;-71
2023/02/26 05:50:00;;;;;;;2.15;0.20;;;0.90;78.70;;;;;;4982440;28;87626;-71
2023/02/26 05:52:26;;;;;;;1.20;0.10;;;0.90;79.40;;;;;;4978959;28;89388;-72
2023/02/26 05:54:51;;;;;;;0.82;0.10;;;0.90;80.10;;;;;;4979743;28;87386;-72
2023/02/26 05:57:17;;;;;;;2.50;0.10;;;0.90;79.60;;;;;;4979581;28;86436;-71
2023/02/26 05:59:43;;;;;;;4.57;0.40;;;0.90;79.20;;;;;;4984250;28;88199;-71
2023/02/26 06:02:08;;;;;;;2.67;0.30;;;0.80;79.40;;;;;;4978757;28;87915;-72
2023/02/26 06:04:34;;;;;;;4.53;1.00;;;0.80;79.50;;;;;;4979744;28;89201;-72
2023/02/26 06:07:00;;;;;;;1.00;0.20;;;0.70;79.40;;;;;;4978870;28;87517;-72
2023/02/26 06:09:26;;;;;;;2.67;0.50;;;0.70;79.30;;;;;;4991725;28;88595;-71
2023/02/26 06:11:52;;;;;;;1.85;0.15;;;0.70;79.70;;;;;;4990550;28;87928;-72
2023/02/26 06:14:17;;;;;;;1.48;0.10;;;0.70;79.90;;;;;;4979612;28;87475;-71
2023/02/26 06:16:43;;;;;;;2.42;0.30;;;0.70;79.00;;;;;;4978466;28;87493;-71
2023/02/26 06:19:09;;;;;;;4.57;0.30;;;0.70;79.70;;;;;;4971357;28;88003;-72
2023/02/26 06:21:34;;;;;;;2.40;0.30;;;0.60;79.40;;;;;;4986840;28;87224;-72
2023/02/26 06:24:00;;;;;;;2.53;0.40;;;0.70;79.70;;;;;;4982221;28;87313;-71
2023/02/26 06:26:26;;;;;;;2.25;0.17;;;0.60;79.90;;;;;;4976120;28;87298;-71
2023/02/26 06:28:51;;;;;;;1.77;0.15;;;0.50;78.20;;;;;;4976897;28;88899;-72
2023/02/26 06:31:17;;;;;;;2.90;0.20;;;0.50;78.90;;;;;;4982909;28;89080;-72
2023/02/26 06:33:43;;;;;;;2.58;0.32;;;0.50;79.50;;;;;;4982514;28;87059;-70
2023/02/26 06:36:08;;;;;;;2.42;0.10;;;0.50;78.90;;;;;;4996852;28;87330;-70
2023/02/26 06:38:34;;;;;;;3.80;0.30;;;0.50;78.20;;;;;;4987001;28;87534;-71
2023/02/26 06:41:00;;;;;;;2.38;0.30;;;0.50;78.40;;;;;;4977384;28;88058;-71
2023/02/26 06:43:26;;;;;;;2.30;0.20;;;0.50;79.00;;;;;;4977508;28;87753;-71
2023/02/26 06:45:52;;;;;;;5.10;0.22;;;0.60;79.30;;;;;;4982407;28;88040;-71
2023/02/26 06:48:18;;;;;;;1.75;0.20;;;0.60;77.90;;;;;;4976584;28;88518;-71
2023/02/26 06:50:44;;;;;;;2.90;0.40;;;0.60;78.20;;;;;;4978331;28;88242;-71
2023/02/26 06:53:10;;;;;;;1.88;0.20;;;0.60;77.80;;;;;;4989356;28;88494;-71
2023/02/26 06:55:35;;;;;;;1.13;0.20;;;0.80;78.10;;;;;;4984746;28;87103;-70
2023/02/26 06:58:01;;;;;;;3.70;0.30;;;0.90;78.10;;;;;;4987476;28;88022;-71
2023/02/26 07:00:27;;;;;;;1.98;0.20;;;0.90;76.80;;;;;;4988985;28;89338;-71
2023/02/26 07:02:52;;;;;;;4.93;0.20;;;0.90;77.30;;;;;;4986363;28;87482;-74
2023/02/26 07:05:18;;;;;;;4.15;0.50;;;1.00;78.60;;;;;;4981523;28;88732;-71
2023/02/26 07:07:44;;;;;;;2.72;0.30;;;1.00;76.40;;;;;;4977993;28;88551;-72
2023/02/26 07:10:11;;;;;;;2.70;0.30;;;1.10;77.00;;;;;;4981372;28;87804;-72
2023/02/26 07:12:37;;;;;;;3.42;0.20;;;1.30;76.00;;;;;;4975527;28;87528;-71
2023/02/26 07:15:04;;;;;;;1.20;0.20;;;1.70;76.30;;;;;;4959418;28;88866;-72
2023/02/26 07:17:30;;;;;;;5.18;0.52;;;2.20;76.10;;;;;;4961123;28;89338;-71
2023/02/26 07:19:56;;;;;;;6.40;1.75;;;2.50;72.20;;;;;;4976051;28;90384;-72
2023/02/26 07:22:22;;;;;;;3.63;0.45;;;2.40;72.20;;;;;;4972824;28;87742;-71
2023/02/26 07:24:48;;;;;;;1.67;0.22;;;2.30;72.60;;;;;;4968531;28;87123;-71
2023/02/26 07:27:14;;;;;;;2.10;0.20;;;2.20;73.00;;;;;;4970953;28;89339;-72
2023/02/26 07:29:40;;;;;;;2.58;0.40;;;2.20;71.50;;;;;;4975163;28;87888;-69
2023/02/26 07:32:06;;;;;;;4.63;0.55;;;2.20;71.60;;;;;;4973576;28;88108;-70
2023/02/26 07:34:32;;;;;;;2.78;0.47;;;2.20;71.90;;;;;;4970809;28;86715;-70
2023/02/26 07:36:58;;;;;;;4.35;0.45;;;2.20;72.30;;;;;;4968068;28;88637;-71
2023/02/26 07:39:25;;;;;;;3.47;0.52;;;2.20;71.00;;;;;;4977598;28;89002;-71
2023/02/26 07:41:51;;;;;;;4.10;0.20;;;2.20;70.40;;;;;;4974983;28;87975;-72
2023/02/26 07:44:16;;;;;;;4.90;0.40;;;2.20;74.70;;;;;;4972839;28;87515;-71
2023/02/26 07:46:42;;;;;;;3.33;0.30;;;2.30;72.00;;;;;;4973223;28;87861;-71
2023/02/26 07:49:08;;;;;;;3.05;0.10;;;2.40;73.70;;;;;;4956677;28;88685;-71
2023/02/26 07:51:34;;;;;;;3.05;0.30;;;2.50;72.40;;;;;;4968183;28;87685;-73
2023/02/26 07:54:00;;;;;;;3.80;0.30;;;2.50;71.20;;;;;;4961238;28;89581;-73
2023/02/26 07:56:25;;;;;;;2.13;0.40;;;2.50;71.20;;;;;;4965461;28;88970;-73
2023/02/26 07:58:51;;;;;;;3.13;0.68;;;2.50;72.80;;;;;;4962882;28;88384;-72
2023/02/26 08:01:16;;;;;;;3.83;0.32;;;2.60;70.30;;;;;;4961743;28;88888;-73
2023/02/26 08:03:42;;;;;;;5.45;0.52;;;2.80;70.60;;;;;;4961242;28;88857;-73
2023/02/26 08:06:08;;;;;;;2.17;0.20;;;2.70;70.80;;;;;;4968761;28;89997;-72
2023/02/26 08:08:34;;;;;;;7.28;0.50;;;2.70;72.00;;;;;;4968614;28;88181;-72
2023/02/26 08:11:01;;;;;;;3.40;0.52;;;2.70;70.80;;;;;;4956939;28;89348;-72
2023/02/26 08:13:26;;;;;;;7.07;0.40;;;2.60;69.60;;;;;;4960470;28;88059;-73
2023/02/26 08:15:52;;;;;;;4.40;0.38;;;2.60;72.70;;;;;;4959156;28;88912;-72
2023/02/26 08:18:18;;;;;;;3.83;0.25;;;2.50;71.40;;;;;;4957334;28;89170;-72
2023/02/26 08:20:44;;;;;;;2.85;0.38;;;2.30;70.40;;;;;;4960590;28;89427;-72
2023/02/26 08:23:09;;;;;;;4.25;0.40;;;2.30;71.40;;;;;;4962166;28;88546;-72
2023/02/26 08:25:35;;;;;;;2.88;0.20;;;2.20;71.40;;;;;;4961189;28;89517;-72
2023/02/26 08:28:02;;;;;;;3.15;0.38;;;2.10;70.60;;;;;;4955139;28;88271;-73
2023/02/26 08:30:28;;;;;;;2.38;0.40;;;2.00;71.60;;;;;;4956969;28;90591;-73
2023/02/26 08:32:54;;;;;;;3.17;0.30;;;2.00;71.90;;;;;;4965309;28;89694;-72
2023/02/26 08:35:19;;;;;;;4.90;0.30;;;2.00;71.00;;;;;;4957856;28;88931;-72
2023/02/26 08:37:45;;;;;;;3.90;0.50;;;2.20;70.60;;;;;;4956559;28;87892;-72
2023/02/26 08:40:11;;;;;;;3.28;0.70;;;2.30;70.10;;;;;;4959142;28;89310;-72
2023/02/26 08:42:37;;;;;;;6.85;0.50;;;2.50;70.80;;;;;;4943326;28;89905;-72
2023/02/26 08:45:03;;;;;;;3.95;0.50;;;2.70;70.80;;;;;;4943960;28;91322;-72
2023/02/26 08:47:29;;;;;;;3.97;0.40;;;2.70;68.50;;;;;;4957272;28;89733;-72
2023/02/26 08:49:56;;;;;;;3.00;0.45;;;2.50;69.00;;;;;;4960306;28;89654;-71
2023/02/26 08:52:22;;;;;;;2.22;0.35;;;2.40;69.50;;;;;;4960365;28;88431;-72
2023/02/26 08:54:47;;;;;;;7.20;0.40;;;2.50;69.90;;;;;;4958542;28;89902;-71
2023/02/26 08:57:13;;;;;;;3.20;0.47;;;2.70;68.70;;;;;;4956756;28;88731;-72
2023/02/26 08:59:39;;;;;;;3.35;0.28;;;3.00;68.70;;;;;;4960997;28;88586;-72
2023/02/26 09:02:05;;;;;;;2.15;0.40;;;3.40;68.30;;;;;;4961803;28;87484;-72
2023/02/26 09:04:30;;;;;;;3.42;0.60;;;3.60;65.80;;;;;;4951650;28;89325;-71
2023/02/26 09:06:56;;;;;;;3.83;0.50;;;3.30;65.40;;;;;;4953787;28;88680;-72
2023/02/26 09:09:22;;;;;;;2.20;0.40;;;4.20;67.30;;;;;;4957403;28;89186;-72
2023/02/26 09:11:47;;;;;;;1.40;0.22;;;5.30;62.20;;;;;;4954704;28;88544;-73
2023/02/26 09:14:13;;;;;;;5.65;0.50;;;6.40;61.60;;;;;;4957453;28;88437;-73
2023/02/26 09:16:39;;;;;;;4.28;0.40;;;8.90;55.80;;;;;;4955422;28;89989;-72
2023/02/26 09:19:05;;;;;;;3.40;0.30;;;10.90;51.20;;;;;;4954860;28;89719;-72
2023/02/26 09:21:32;;;;;;;1.65;0.30;;;12.40;49.40;;;;;;4962197;28;88997;-73
2023/02/26 09:23:58;;;;;;;1.75;0.30;;;13.40;49.50;;;;;;4960180;28;88335;-72
2023/02/26 09:26:24;;;;;;;2.05;0.32;;;12.30;43.80;;;;;;4957721;28;89060;-72
2023/02/26 09:28:50;;;;;;;1.15;0.22;;;12.40;46.80;;;;;;4962264;28;89160;-72
2023/02/26 09:31:15;;;;;;;4.07;0.65;;;11.00;44.50;;;;;;4958706;28;89217;-72
2023/02/26 09:33:41;;;;;;;2.67;0.65;;;10.70;47.30;;;;;;4955353;28;89059;-72
2023/02/26 09:36:07;;;;;;;3.72;0.40;;;10.40;48.90;;;;;;4955337;28;88810;-73
2023/02/26 09:38:34;;;;;;;1.33;0.32;;;9.60;47.90;;;;;;4958288;28;89160;-72
2023/02/26 09:41:07;;;;;;;3.35;0.38;;;10.20;46.30;;;;;;4960698;28;87684;-72
2023/02/26 09:43:48;;;;;;;4.10;0.40;;;10.00;46.50;;;;;;4956720;28;89809;-73
2023/02/26 09:46:28;;;;;;;3.63;0.45;;;10.80;44.60;;;;;;4955696;28;89178;-72
2023/02/26 09:49:06;;;;;;;3.28;0.40;;;9.10;46.90;;;;;;4957237;28;89631;-73
2023/02/26 09:51:33;;;;;;;4.82;0.40;;;7.70;48.90;;;;;;4955355;28;89286;-72
2023/02/26 09:54:03;;;;;;;2.85;0.30;;;7.00;52.80;;;;;;4956216;28;89233;-72
2023/02/26 09:56:35;;;;;;;1.98;0.30;;;6.00;53.60;;;;;;4959021;28;88959;-72
2023/02/26 09:59:01;;;;;;;1.25;0.30;;;5.50;55.50;;;;;;4958579;28;88842;-71
2023/02/26 10:01:30;;;;;;;2.58;0.40;;;4.90;56.40;;;;;;4959023;28;88595;-71
2023/02/26 10:04:04;;;;;;;4.47;0.90;;;4.70;57.70;;;;;;4959559;28;88339;-72
2023/02/26 10:06:40;;;;;;;7.35;0.50;;;4.50;57.90;;;;;;4955223;28;87650;-72
2023/02/26 10:09:29;;;;;;;2.53;0.35;;;4.60;58.70;;;;;;4955557;28;89608;-71
2023/02/26 10:12:13;;;;;;;2.75;0.20;;;4.80;57.10;;;;;;4961373;28;87536;-73
2023/02/26 10:15:13;;;;;;;1.65;0.22;;;4.60;57.40;;;;;;4956068;28;89078;-70
2023/02/26 10:17:53;;;;;;;2.63;0.40;;;4.70;55.70;;;;;;4953612;28;88611;-73
2023/02/26 10:20:18;;;;;;;3.50;0.93;;;4.80;55.90;;;;;;4957919;28;88900;-72
2023/02/26 10:22:58;;;;;;;3.38;0.43;;;4.70;59.10;;;;;;4952378;28;89131;-70
2023/02/26 10:25:49;;;;;;;6.65;1.00;;;4.70;56.40;;;;;;4957500;28;89483;-72
2023/02/26 10:28:49;;;;;;;3.70;0.38;;;4.80;57.80;;;;;;4952583;28;88310;-71
2023/02/26 10:31:28;;;;;;;1.10;0.20;;;4.60;57.60;;;;;;4953006;28;88660;-71
2023/02/26 10:34:18;;;;;;;2.00;0.32;;;4.50;58.10;;;;;;4955254;28;89015;-71
2023/02/26 10:37:07;;;;;;;3.83;0.70;;;4.10;56.70;;;;;;4955796;28;90363;-71
2023/02/26 10:39:54;;;;;;;2.42;0.40;;;3.80;58.20;;;;;;4947796;28;88824;-72
2023/02/26 10:42:26;;;;;;;3.00;0.52;;;3.70;60.00;;;;;;4955435;28;89133;-72
2023/02/26 10:45:06;;;;;;;4.47;0.35;;;3.70;59.60;;;;;;4962711;28;88447;-71
2023/02/26 10:47:50;;;;;;;2.30;0.20;;;3.60;60.80;;;;;;4967347;28;87517;-71
2023/02/26 10:50:19;;;;;;;1.30;0.20;;;3.50;59.10;;;;;;4955837;28;89091;-72
2023/02/26 10:52:47;;;;;;;2.55;0.25;;;3.50;61.30;;;;;;4955656;28;88225;-70
2023/02/26 10:55:37;;;;;;;4.22;0.70;;;3.40;58.90;;;;;;4951763;28;86853;-72
2023/02/26 10:58:24;;;;;;;3.42;0.13;;;3.50;59.10;;;;;;4957874;28;89318;-69
2023/02/26 11:00:53;;;;;;;3.10;0.20;;;3.40;58.50;;;;;;4961042;28;88256;-70
2023/02/26 11:03:40;;;;;;;2.30;0.20;;;3.40;58.40;;;;;;4972754;28;88489;-71
2023/02/26 11:06:07;;;;;;;3.13;0.50;;;3.40;58.80;;;;;;4964703;28;88853;-72
2023/02/26 11:08:49;;;;;;;2.65;0.20;;;3.50;61.60;;;;;;4958901;28;90208;-73
2023/02/26 11:11:35;;;;;;;1.10;0.10;;;3.70;58.50;;;;;;4960352;28;88138;-72
2023/02/26 11:14:01;;;;;;;1.65;0.20;;;3.60;59.50;;;;;;4970081;28;87897;-71
2023/02/26 11:16:28;;;;;;;1.10;0.30;;;3.30;60.20;;;;;;4967545;28;87503;-72
2023/02/26 11:18:57;;;;;;;1.40;0.30;;;3.20;60.40;;;;;;4962490;28;89473;-72
2023/02/26 11:21:26;;;;;;;1.20;0.20;;;3.20;62.00;;;;;;4957138;28;88070;-72
2023/02/26 11:24:00;;;;;;;1.30;0.13;;;3.20;59.90;;;;;;4957595;28;90733;-73
2023/02/26 11:26:30;;;;;;;2.42;0.20;;;3.00;59.90;;;;;;4956717;28;89509;-74
2023/02/26 11:28:57;;;;;;;7.63;0.35;;;3.00;60.50;;;;;;4951107;28;89373;-72
2023/02/26 11:31:24;;;;;;;1.58;0.20;;;3.20;61.30;;;;;;4953058;28;89414;-72
2023/02/26 11:33:55;;;;;;;2.63;0.50;;;3.30;60.30;;;;;;4949813;28;88992;-75
2023/02/26 11:36:27;;;;;;;1.88;0.20;;;3.30;60.60;;;;;;4949527;28;89054;-72
2023/02/26 11:38:57;;;;;;;4.38;0.30;;;3.00;60.50;;;;;;4949474;28;90295;-73
2023/02/26 11:41:24;;;;;;;3.38;0.30;;;3.10;61.60;;;;;;4951084;28;89093;-72
2023/02/26 11:44:07;;;;;;;2.53;0.30;;;3.00;60.20;;;;;;4951931;28;88932;-73
2023/02/26 11:46:50;;;;;;;2.03;0.30;;;3.00;62.20;;;;;;4949331;28;88370;-72
2023/02/26 11:49:19;;;;;;;2.67;0.20;;;2.90;61.50;;;;;;4951527;28;87770;-72
2023/02/26 11:51:47;;;;;;;1.80;0.22;;;2.80;61.80;;;;;;4952379;28;88839;-73
2023/02/26 11:54:26;;;;;;;1.75;0.20;;;2.60;61.10;;;;;;4949269;28;90076;-71
2023/02/26 11:56:59;;;;;;;1.63;0.20;;;2.50;62.30;;;;;;4954207;28;89364;-70
2023/02/26 11:59:25;;;;;;;1.58;0.20;;;2.60;63.50;;;;;;4949463;28;88741;-71
2023/02/26 12:01:52;;;;;;;3.78;0.30;;;2.80;62.20;;;;;;4947582;28;88703;-71
2023/02/26 12:04:24;;;;;;;3.05;0.52;;;2.80;61.40;;;;;;4951657;28;89542;-72
2023/02/26 12:06:54;;;;;;;2.65;0.20;;;2.60;60.80;;;;;;4949236;28;88539;-70
2023/02/26 12:09:20;;;;;;;6.22;0.45;;;2.60;61.70;;;;;;4948007;28;89090;-71
2023/02/26 12:12:02;;;;;;;2.10;0.20;;;2.70;61.80;;;;;;4953035;28;88211;-71
2023/02/26 12:14:42;;;;;;;1.65;0.28;;;2.90;60.20;;;;;;4971680;28;87781;-73
2023/02/26 12:17:15;;;;;;;1.60;0.20;;;3.00;61.00;;;;;;4968162;28;89019;-70
2023/02/26 12:19:58;;;;;;;2.30;0.30;;;2.90;60.30;;;;;;4973685;28;89760;-70
2023/02/26 12:22:27;;;;;;;;;;;2.90;60.80;;;;;;4969198;28;88255;-70
2023/02/26 12:25:06;;;;;;;1.52;0.20;;;3.00;60.10;;;;;;4972868;28;87506;-73
2023/02/26 12:28:14;;;;;;;1.50;0.20;;;2.90;60.30;;;;;;4977000;28;87502;-72
2023/02/26 12:30:50;;;;;;;2.22;0.20;;;3.00;59.80;;;;;;4954591;28;87798;-71
2023/02/26 12:33:40;;;;;;;0.98;0.10;;;3.00;60.30;;;;;;4964979;28;89501;-72
2023/02/26 12:36:11;;;;;;;1.52;0.20;;;3.10;60.80;;;;;;4965232;28;89045;-71
2023/02/26 12:38:48;;;;;;;1.27;0.20;;;2.90;59.10;;;;;;4968735;28;88096;-72
2023/02/26 12:41:23;;;;;;;;;;;2.80;60.50;;;;;;4964197;28;88141;-73
2023/02/26 12:43:51;;;;;;;3.08;0.20;;;2.60;60.70;;;;;;4968204;28;88079;-72
2023/02/26 12:46:39;;;;;;;4.60;0.13;;;2.70;60.50;;;;;;4972260;28;88864;-72
2023/02/26 12:49:07;;;;;;;0.70;0.10;;;2.60;59.60;;;;;;4968131;28;88681;-71
2023/02/26 12:52:04;;;;;;;2.15;0.32;;;2.60;59.50;;;;;;4977265;28;88107;-72
2023/02/26 12:54:47;;;;;;;2.35;0.20;;;2.60;60.00;;;;;;4967461;28;87592;-73
2023/02/26 12:57:21;;;;;;;;;;;2.60;60.20;;;;;;4963673;28;88047;-73
2023/02/26 13:00:12;;;;;;;2.08;0.20;;;2.70;60.30;;;;;;4968746;28;88845;-72
2023/02/26 13:02:57;;;;;;;1.25;0.20;;;2.80;59.90;;;;;;4967267;28;87626;-72
2023/02/26 13:05:35;;;;;;;1.40;0.20;;;2.80;60.40;;;;;;4963341;28;89915;-73
2023/02/26 13:08:25;;;;;;;2.33;0.13;;;2.80;58.60;;;;;;4972859;28;89469;-72
2023/02/26 13:10:59;;;;;;;1.38;0.20;;;2.80;59.60;;;;;;4982313;28;87178;-72
2023/02/26 13:14:02;;;;;;;0.40;0.00;;;2.80;59.90;;;;;;4965542;28;88360;-72
2023/02/26 13:16:33;;;;;;;2.55;0.20;;;2.80;59.10;;;;;;4977245;28;88341;-72
2023/02/26 13:19:29;;;;;;;1.63;0.10;;;2.90;59.60;;;;;;4970589;28;87617;-71